HAZ3184 ZLXY-ZGSZ
Flight info
| Callsign | HAZ3184 |
|---|---|
| Flight time | 2h 19m |
| Altitude | 38100 |
| Route | UPDUM9Z UPDUM W285 DUMAX W278 AVDIG W276 ARELA W30 TAMUS/K0876S1130 W180 IVSOL/K0880S1160 W180 BONSA/K0883S1130 W180 LIDMA W182 LAGEX G586 SJG B330 POU W7 SAREX SAREX3 |
| Aircraft | A339/H-SADE1E2E3GHIJ3J5M1P2RWXY/LB2D1 |
Departure
| Time | 2026-04-23 05:18 |
|---|---|
| Airport | Xi'an Xianyang International Airport (ZLXY) |
Arrival
| Time | 2026-04-23 07:37 |
|---|---|
| Airport | Shenzhen Bao'an International Airport (ZGSZ) |
| Time | Latitude | Longitude | Altitude | Speed | Heading |
|---|---|---|---|---|---|
| 2026-04-23 04:54 | 34.44420 | 108.75750 | 1584 ft | 0 kts | 136° |
| 2026-04-23 05:06 | 34.44427 | 108.75742 | 1584 ft | 2 kts | 142° |
| 2026-04-23 05:06 | 34.44438 | 108.75731 | 1584 ft | 2 kts | 137° |
| 2026-04-23 05:06 | 34.44445 | 108.75723 | 1584 ft | 2 kts | 134° |
| 2026-04-23 05:07 | 34.44454 | 108.75709 | 1584 ft | 2 kts | 114° |
| 2026-04-23 05:07 | 34.44458 | 108.75691 | 1584 ft | 2 kts | 97° |
| 2026-04-23 05:07 | 34.44458 | 108.75673 | 1584 ft | 2 kts | 79° |
| 2026-04-23 05:07 | 34.44454 | 108.75656 | 1584 ft | 2 kts | 62° |
| 2026-04-23 05:08 | 34.44448 | 108.75644 | 1584 ft | 0 kts | 49° |
| 2026-04-23 05:08 | 34.44445 | 108.75640 | 1584 ft | 0 kts | 48° |
| 2026-04-23 05:09 | 34.44446 | 108.75642 | 1584 ft | 0 kts | 48° |
| 2026-04-23 05:10 | 34.44453 | 108.75652 | 1584 ft | 2 kts | 49° |
| 2026-04-23 05:10 | 34.44470 | 108.75663 | 1584 ft | 3 kts | 18° |
| 2026-04-23 05:10 | 34.44494 | 108.75661 | 1584 ft | 3 kts | 343° |
| 2026-04-23 05:10 | 34.44521 | 108.75639 | 1584 ft | 6 kts | 321° |
| 2026-04-23 05:11 | 34.44564 | 108.75594 | 1584 ft | 9 kts | 319° |
| 2026-04-23 05:11 | 34.44617 | 108.75538 | 1584 ft | 10 kts | 318° |
| 2026-04-23 05:11 | 34.44674 | 108.75530 | 1584 ft | 9 kts | 31° |
| 2026-04-23 05:11 | 34.44713 | 108.75579 | 1584 ft | 7 kts | 49° |
| 2026-04-23 05:12 | 34.44753 | 108.75633 | 1584 ft | 9 kts | 49° |
| 2026-04-23 05:12 | 34.44803 | 108.75698 | 1584 ft | 10 kts | 35° |
| 2026-04-23 05:12 | 34.44870 | 108.75687 | 1584 ft | 10 kts | 329° |
| 2026-04-23 05:12 | 34.44932 | 108.75622 | 1584 ft | 13 kts | 319° |
| 2026-04-23 05:13 | 34.45003 | 108.75547 | 1584 ft | 13 kts | 319° |
| 2026-04-23 05:13 | 34.45076 | 108.75471 | 1584 ft | 14 kts | 319° |
| 2026-04-23 05:13 | 34.45152 | 108.75391 | 1584 ft | 14 kts | 319° |
| 2026-04-23 05:14 | 34.45199 | 108.75233 | 1584 ft | 10 kts | 231° |
| 2026-04-23 05:14 | 34.45146 | 108.75156 | 1584 ft | 13 kts | 229° |
| 2026-04-23 05:14 | 34.45074 | 108.75058 | 1584 ft | 17 kts | 229° |
| 2026-04-23 05:14 | 34.44974 | 108.74918 | 1584 ft | 25 kts | 228° |
| 2026-04-23 05:15 | 34.44858 | 108.74761 | 1584 ft | 23 kts | 230° |
| 2026-04-23 05:15 | 34.44752 | 108.74612 | 1584 ft | 22 kts | 229° |
| 2026-04-23 05:15 | 34.44650 | 108.74473 | 1584 ft | 21 kts | 229° |
| 2026-04-23 05:15 | 34.44553 | 108.74338 | 1584 ft | 20 kts | 229° |
| 2026-04-23 05:16 | 34.44458 | 108.74208 | 1584 ft | 19 kts | 229° |
| 2026-04-23 05:16 | 34.44399 | 108.74113 | 1584 ft | 9 kts | 256° |
| 2026-04-23 05:16 | 34.44426 | 108.74054 | 1584 ft | 8 kts | 314° |
| 2026-04-23 05:16 | 34.44474 | 108.74000 | 1584 ft | 8 kts | 318° |
| 2026-04-23 05:17 | 34.44514 | 108.73993 | 1584 ft | 6 kts | 20° |
| 2026-04-23 05:17 | 34.44529 | 108.74004 | 1584 ft | 0 kts | 44° |
| 2026-04-23 05:17 | 34.44638 | 108.74143 | 1584 ft | 54 kts | 48° |
| 2026-04-23 05:17 | 34.45021 | 108.74673 | 1584 ft | 112 kts | 49° |
| 2026-04-23 05:18 | 34.45643 | 108.75532 | 1584 ft | 159 kts | 50° |
| 2026-04-23 05:18 | 34.46421 | 108.76612 | 1900 ft | 173 kts | 50° |
| 2026-04-23 05:18 | 34.47277 | 108.77673 | 2445 ft | 176 kts | 40° |
| 2026-04-23 05:18 | 34.48397 | 108.78237 | 2977 ft | 181 kts | 7° |
| 2026-04-23 05:19 | 34.49635 | 108.78532 | 3549 ft | 180 kts | 31° |
| 2026-04-23 05:19 | 34.50638 | 108.79421 | 4080 ft | 179 kts | 36° |
| 2026-04-23 05:19 | 34.51784 | 108.80029 | 4580 ft | 182 kts | 17° |
| 2026-04-23 05:19 | 34.53031 | 108.80399 | 4977 ft | 191 kts | 15° |
| 2026-04-23 05:20 | 34.54362 | 108.80798 | 5272 ft | 206 kts | 16° |
| 2026-04-23 05:20 | 34.55800 | 108.81278 | 5559 ft | 222 kts | 18° |
| 2026-04-23 05:20 | 34.57346 | 108.81835 | 5869 ft | 240 kts | 18° |
| 2026-04-23 05:20 | 34.58998 | 108.82455 | 6189 ft | 257 kts | 18° |
| 2026-04-23 05:21 | 34.60764 | 108.83126 | 6531 ft | 274 kts | 19° |
| 2026-04-23 05:21 | 34.62624 | 108.83840 | 7070 ft | 282 kts | 18° |
| 2026-04-23 05:21 | 34.64487 | 108.84525 | 7698 ft | 285 kts | 15° |
| 2026-04-23 05:21 | 34.66462 | 108.84675 | 8309 ft | 289 kts | 347° |
| 2026-04-23 05:22 | 34.68240 | 108.83607 | 8989 ft | 290 kts | 319° |
| 2026-04-23 05:22 | 34.69472 | 108.81679 | 9700 ft | 292 kts | 294° |
| 2026-04-23 05:22 | 34.69923 | 108.79303 | 10325 ft | 295 kts | 270° |
| 2026-04-23 05:22 | 34.69487 | 108.76836 | 10657 ft | 310 kts | 244° |
| 2026-04-23 05:23 | 34.68119 | 108.74779 | 10952 ft | 326 kts | 219° |
| 2026-04-23 05:23 | 34.66216 | 108.73112 | 11254 ft | 342 kts | 218° |
| 2026-04-23 05:23 | 34.64325 | 108.71304 | 11507 ft | 357 kts | 220° |
| 2026-04-23 05:23 | 34.62343 | 108.69350 | 11859 ft | 373 kts | 220° |
| 2026-04-23 05:24 | 34.60320 | 108.67361 | 12316 ft | 382 kts | 220° |
| 2026-04-23 05:24 | 34.58187 | 108.65404 | 12950 ft | 386 kts | 212° |
| 2026-04-23 05:24 | 34.55641 | 108.64347 | 13530 ft | 394 kts | 188° |
| 2026-04-23 05:24 | 34.52912 | 108.64622 | 14190 ft | 401 kts | 165° |
| 2026-04-23 05:25 | 34.50354 | 108.66070 | 14741 ft | 408 kts | 149° |
| 2026-04-23 05:25 | 34.47950 | 108.67861 | 15314 ft | 413 kts | 150° |
| 2026-04-23 05:25 | 34.45436 | 108.69666 | 15863 ft | 419 kts | 150° |
| 2026-04-23 05:25 | 34.42874 | 108.71446 | 16443 ft | 423 kts | 151° |
| 2026-04-23 05:26 | 34.40288 | 108.73208 | 17019 ft | 428 kts | 152° |
| 2026-04-23 05:26 | 34.37675 | 108.74969 | 17535 ft | 433 kts | 152° |
| 2026-04-23 05:26 | 34.35004 | 108.76757 | 18051 ft | 439 kts | 152° |
| 2026-04-23 05:26 | 34.32320 | 108.78549 | 18588 ft | 443 kts | 152° |
| 2026-04-23 05:27 | 34.29638 | 108.80338 | 19168 ft | 447 kts | 152° |
| 2026-04-23 05:27 | 34.26905 | 108.82159 | 19682 ft | 450 kts | 152° |
| 2026-04-23 05:27 | 34.24098 | 108.83884 | 20168 ft | 453 kts | 159° |
| 2026-04-23 05:27 | 34.21113 | 108.85008 | 20670 ft | 454 kts | 170° |
| 2026-04-23 05:28 | 34.17959 | 108.85484 | 21227 ft | 453 kts | 180° |
| 2026-04-23 05:28 | 34.14809 | 108.85547 | 21813 ft | 454 kts | 182° |
| 2026-04-23 05:28 | 34.11651 | 108.85552 | 22277 ft | 457 kts | 182° |
| 2026-04-23 05:28 | 34.08454 | 108.85568 | 22742 ft | 461 kts | 182° |
| 2026-04-23 05:29 | 34.05268 | 108.85603 | 23188 ft | 464 kts | 182° |
| 2026-04-23 05:29 | 34.01996 | 108.85642 | 23677 ft | 467 kts | 182° |
| 2026-04-23 05:29 | 33.98766 | 108.85664 | 24129 ft | 469 kts | 183° |
| 2026-04-23 05:29 | 33.95470 | 108.85683 | 24532 ft | 473 kts | 183° |
| 2026-04-23 05:30 | 33.92188 | 108.85699 | 24945 ft | 476 kts | 183° |
| 2026-04-23 05:30 | 33.88883 | 108.85716 | 25370 ft | 478 kts | 183° |
| 2026-04-23 05:30 | 33.85535 | 108.85734 | 25733 ft | 481 kts | 183° |
| 2026-04-23 05:30 | 33.82170 | 108.85753 | 26115 ft | 483 kts | 183° |
| 2026-04-23 05:31 | 33.78823 | 108.85771 | 26481 ft | 485 kts | 183° |
| 2026-04-23 05:31 | 33.75421 | 108.85791 | 26827 ft | 488 kts | 183° |
| 2026-04-23 05:31 | 33.72042 | 108.85813 | 27193 ft | 489 kts | 184° |
| 2026-04-23 05:31 | 33.68612 | 108.85834 | 27593 ft | 490 kts | 184° |
| 2026-04-23 05:32 | 33.65224 | 108.85854 | 28104 ft | 488 kts | 184° |
| 2026-04-23 05:32 | 33.61856 | 108.85875 | 28605 ft | 486 kts | 184° |
| 2026-04-23 05:32 | 33.58442 | 108.85895 | 29065 ft | 485 kts | 184° |
| 2026-04-23 05:32 | 33.55087 | 108.85914 | 29519 ft | 484 kts | 184° |
| 2026-04-23 05:33 | 33.51724 | 108.85926 | 29991 ft | 482 kts | 185° |
| 2026-04-23 05:33 | 33.48418 | 108.85783 | 30437 ft | 478 kts | 188° |
| 2026-04-23 05:33 | 33.45107 | 108.85384 | 30879 ft | 473 kts | 193° |
| 2026-04-23 05:33 | 33.41906 | 108.84739 | 31259 ft | 468 kts | 197° |
| 2026-04-23 05:34 | 33.38728 | 108.83833 | 31674 ft | 463 kts | 201° |
| 2026-04-23 05:34 | 33.35685 | 108.82709 | 32072 ft | 458 kts | 205° |
| 2026-04-23 05:34 | 33.32729 | 108.81362 | 32429 ft | 453 kts | 209° |
| 2026-04-23 05:34 | 33.29880 | 108.79812 | 32832 ft | 448 kts | 212° |
| 2026-04-23 05:35 | 33.27061 | 108.78175 | 33164 ft | 447 kts | 212° |
| 2026-04-23 05:35 | 33.24294 | 108.76566 | 33488 ft | 446 kts | 212° |
| 2026-04-23 05:35 | 33.21491 | 108.74943 | 33818 ft | 443 kts | 213° |
| 2026-04-23 05:35 | 33.18737 | 108.73348 | 34202 ft | 441 kts | 213° |
| 2026-04-23 05:36 | 33.16005 | 108.71765 | 34526 ft | 440 kts | 212° |
| 2026-04-23 05:36 | 33.13263 | 108.70177 | 34797 ft | 440 kts | 212° |
| 2026-04-23 05:36 | 33.10497 | 108.68580 | 35024 ft | 439 kts | 212° |
| 2026-04-23 05:36 | 33.07761 | 108.67006 | 35289 ft | 437 kts | 213° |
| 2026-04-23 05:37 | 33.05029 | 108.65432 | 35537 ft | 436 kts | 213° |
| 2026-04-23 05:37 | 33.02317 | 108.63870 | 35886 ft | 435 kts | 213° |
| 2026-04-23 05:37 | 32.99594 | 108.62301 | 36175 ft | 434 kts | 213° |
| 2026-04-23 05:37 | 32.96883 | 108.60742 | 36435 ft | 433 kts | 213° |
| 2026-04-23 05:38 | 32.94160 | 108.59178 | 36659 ft | 434 kts | 213° |
| 2026-04-23 05:38 | 32.91447 | 108.57620 | 36783 ft | 435 kts | 213° |
| 2026-04-23 05:38 | 32.88725 | 108.56058 | 37023 ft | 435 kts | 213° |
| 2026-04-23 05:38 | 32.85973 | 108.54479 | 37212 ft | 436 kts | 213° |
| 2026-04-23 05:39 | 32.83242 | 108.52914 | 37340 ft | 437 kts | 213° |
| 2026-04-23 05:39 | 32.80524 | 108.51360 | 37515 ft | 438 kts | 213° |
| 2026-04-23 05:39 | 32.77765 | 108.49779 | 37661 ft | 439 kts | 213° |
| 2026-04-23 05:39 | 32.74994 | 108.48195 | 37814 ft | 440 kts | 213° |
| 2026-04-23 05:40 | 32.72277 | 108.46644 | 38036 ft | 439 kts | 213° |
| 2026-04-23 05:40 | 32.66758 | 108.43494 | 38104 ft | 439 kts | 213° |
| 2026-04-23 05:41 | 32.61239 | 108.40349 | 38121 ft | 439 kts | 213° |
| 2026-04-23 05:41 | 32.55759 | 108.37230 | 38111 ft | 439 kts | 213° |
| 2026-04-23 05:42 | 32.50259 | 108.34104 | 38088 ft | 440 kts | 212° |
| 2026-04-23 05:42 | 32.44736 | 108.30969 | 38120 ft | 440 kts | 212° |
| 2026-04-23 05:43 | 32.39632 | 108.27238 | 38134 ft | 428 kts | 225° |
| 2026-04-23 05:43 | 32.35518 | 108.22293 | 38082 ft | 416 kts | 237° |
| 2026-04-23 05:44 | 32.32539 | 108.16512 | 38127 ft | 411 kts | 249° |
| 2026-04-23 05:44 | 32.30647 | 108.10216 | 38127 ft | 407 kts | 255° |
| 2026-04-23 05:45 | 32.28984 | 108.03828 | 38126 ft | 407 kts | 255° |
| 2026-04-23 05:45 | 32.27342 | 107.97469 | 38124 ft | 407 kts | 255° |
| 2026-04-23 05:46 | 32.25687 | 107.91056 | 38121 ft | 409 kts | 255° |
| 2026-04-23 05:46 | 32.24037 | 107.84675 | 38119 ft | 409 kts | 256° |
| 2026-04-23 05:47 | 32.22355 | 107.78269 | 38114 ft | 409 kts | 252° |
| 2026-04-23 05:47 | 32.19731 | 107.72302 | 38123 ft | 415 kts | 239° |
| 2026-04-23 05:48 | 32.15853 | 107.67170 | 38120 ft | 427 kts | 226° |
| 2026-04-23 05:48 | 32.10829 | 107.63223 | 38125 ft | 441 kts | 213° |
| 2026-04-23 05:49 | 32.05045 | 107.60770 | 38130 ft | 447 kts | 204° |
| 2026-04-23 05:49 | 31.99116 | 107.58696 | 38135 ft | 449 kts | 204° |
| 2026-04-23 05:50 | 31.93117 | 107.56622 | 38138 ft | 448 kts | 204° |
| 2026-04-23 05:50 | 31.87188 | 107.54573 | 38130 ft | 447 kts | 204° |
| 2026-04-23 05:51 | 31.81201 | 107.52502 | 38133 ft | 447 kts | 204° |
| 2026-04-23 05:51 | 31.75244 | 107.50443 | 38124 ft | 448 kts | 204° |
| 2026-04-23 05:52 | 31.69270 | 107.48388 | 38143 ft | 446 kts | 205° |
| 2026-04-23 05:52 | 31.63323 | 107.46339 | 38109 ft | 446 kts | 204° |
| 2026-04-23 05:53 | 31.57390 | 107.44298 | 38123 ft | 446 kts | 205° |
| 2026-04-23 05:53 | 31.51444 | 107.42257 | 38106 ft | 445 kts | 205° |
| 2026-04-23 05:54 | 31.45506 | 107.40219 | 38106 ft | 443 kts | 206° |
| 2026-04-23 05:54 | 31.39749 | 107.37822 | 38087 ft | 435 kts | 211° |
| 2026-04-23 05:55 | 31.34289 | 107.34815 | 38092 ft | 432 kts | 215° |
| 2026-04-23 05:55 | 31.28940 | 107.31624 | 38073 ft | 433 kts | 214° |
| 2026-04-23 05:56 | 31.23598 | 107.28442 | 38068 ft | 433 kts | 214° |
| 2026-04-23 05:56 | 31.18245 | 107.25256 | 38063 ft | 431 kts | 214° |
| 2026-04-23 05:57 | 31.12901 | 107.22076 | 38082 ft | 431 kts | 215° |
| 2026-04-23 05:57 | 31.07557 | 107.18898 | 38070 ft | 431 kts | 215° |
| 2026-04-23 05:58 | 31.02234 | 107.15737 | 38059 ft | 430 kts | 215° |
| 2026-04-23 05:58 | 30.96880 | 107.12563 | 38057 ft | 430 kts | 215° |
| 2026-04-23 05:59 | 30.91579 | 107.09425 | 38057 ft | 429 kts | 215° |
| 2026-04-23 05:59 | 30.86258 | 107.06274 | 38063 ft | 430 kts | 215° |
| 2026-04-23 06:00 | 30.80913 | 107.03123 | 38050 ft | 428 kts | 215° |
| 2026-04-23 06:00 | 30.75506 | 107.00255 | 38061 ft | 434 kts | 209° |
| 2026-04-23 06:01 | 30.69640 | 106.98186 | 38045 ft | 445 kts | 201° |
| 2026-04-23 06:01 | 30.63463 | 106.97062 | 38064 ft | 453 kts | 194° |
| 2026-04-23 06:02 | 30.57145 | 106.96895 | 38078 ft | 458 kts | 189° |
| 2026-04-23 06:02 | 30.50748 | 106.96970 | 38078 ft | 460 kts | 189° |
| 2026-04-23 06:03 | 30.44338 | 106.97050 | 38092 ft | 459 kts | 189° |
| 2026-04-23 06:03 | 30.37991 | 106.97128 | 38090 ft | 457 kts | 189° |
| 2026-04-23 06:04 | 30.31613 | 106.97146 | 38084 ft | 454 kts | 191° |
| 2026-04-23 06:04 | 30.25308 | 106.97054 | 38073 ft | 453 kts | 191° |
| 2026-04-23 06:05 | 30.19032 | 106.96963 | 38071 ft | 454 kts | 191° |
| 2026-04-23 06:05 | 30.12723 | 106.96883 | 38072 ft | 451 kts | 191° |
| 2026-04-23 06:06 | 30.06422 | 106.96808 | 38082 ft | 452 kts | 191° |
| 2026-04-23 06:06 | 30.00151 | 106.96730 | 38090 ft | 453 kts | 191° |
| 2026-04-23 06:07 | 29.93852 | 106.96655 | 38083 ft | 452 kts | 191° |
| 2026-04-23 06:07 | 29.87591 | 106.96583 | 38049 ft | 451 kts | 191° |
| 2026-04-23 06:08 | 29.81307 | 106.96506 | 38067 ft | 452 kts | 191° |
| 2026-04-23 06:08 | 29.74982 | 106.96429 | 38062 ft | 453 kts | 191° |
| 2026-04-23 06:09 | 29.68713 | 106.96355 | 38072 ft | 454 kts | 191° |
| 2026-04-23 06:09 | 29.62380 | 106.96283 | 38046 ft | 451 kts | 191° |
| 2026-04-23 06:10 | 29.56105 | 106.96214 | 38081 ft | 451 kts | 191° |
| 2026-04-23 06:10 | 29.49856 | 106.96136 | 38091 ft | 450 kts | 192° |
| 2026-04-23 06:11 | 29.43606 | 106.96059 | 38057 ft | 450 kts | 192° |
| 2026-04-23 06:11 | 29.37340 | 106.95981 | 38076 ft | 450 kts | 192° |
| 2026-04-23 06:12 | 29.31075 | 106.95906 | 38049 ft | 448 kts | 192° |
| 2026-04-23 06:12 | 29.21674 | 106.95789 | 38078 ft | 450 kts | 192° |
| 2026-04-23 06:13 | 29.15439 | 106.95718 | 38102 ft | 451 kts | 192° |
| 2026-04-23 06:13 | 29.09146 | 106.95637 | 38097 ft | 450 kts | 192° |
| 2026-04-23 06:14 | 29.02869 | 106.95564 | 38097 ft | 450 kts | 192° |
| 2026-04-23 06:14 | 28.96652 | 106.95489 | 38111 ft | 448 kts | 192° |
| 2026-04-23 06:15 | 28.90408 | 106.95415 | 38102 ft | 449 kts | 193° |
| 2026-04-23 06:15 | 28.84168 | 106.95342 | 38098 ft | 449 kts | 193° |
| 2026-04-23 06:16 | 28.77945 | 106.95266 | 38082 ft | 448 kts | 193° |
| 2026-04-23 06:16 | 28.71697 | 106.95194 | 38080 ft | 448 kts | 193° |
| 2026-04-23 06:17 | 28.65472 | 106.95119 | 38091 ft | 447 kts | 193° |
| 2026-04-23 06:17 | 28.59230 | 106.95046 | 38125 ft | 446 kts | 193° |
| 2026-04-23 06:18 | 28.53053 | 106.94968 | 38133 ft | 443 kts | 193° |
| 2026-04-23 06:18 | 28.46891 | 106.94894 | 38133 ft | 446 kts | 193° |
| 2026-04-23 06:19 | 28.40730 | 106.94826 | 38137 ft | 443 kts | 193° |
| 2026-04-23 06:19 | 28.34553 | 106.94753 | 38148 ft | 441 kts | 194° |
| 2026-04-23 06:20 | 28.28432 | 106.94680 | 38148 ft | 442 kts | 193° |
| 2026-04-23 06:20 | 28.22218 | 106.94726 | 38146 ft | 449 kts | 190° |
| 2026-04-23 06:21 | 28.15987 | 106.95073 | 38121 ft | 450 kts | 191° |
| 2026-04-23 06:21 | 28.09720 | 106.95425 | 38135 ft | 449 kts | 191° |
| 2026-04-23 06:22 | 28.03527 | 106.95766 | 38138 ft | 446 kts | 191° |
| 2026-04-23 06:22 | 27.97284 | 106.96090 | 38126 ft | 447 kts | 191° |
| 2026-04-23 06:23 | 27.91111 | 106.96410 | 38135 ft | 447 kts | 191° |
| 2026-04-23 06:23 | 27.84864 | 106.96742 | 38144 ft | 446 kts | 191° |
| 2026-04-23 06:24 | 27.78662 | 106.97068 | 38144 ft | 447 kts | 191° |
| 2026-04-23 06:24 | 27.72434 | 106.97395 | 38160 ft | 448 kts | 191° |
| 2026-04-23 06:25 | 27.66238 | 106.97721 | 38150 ft | 449 kts | 191° |
| 2026-04-23 06:25 | 27.60016 | 106.98050 | 38156 ft | 447 kts | 191° |
| 2026-04-23 06:26 | 27.53803 | 106.98377 | 38158 ft | 446 kts | 191° |
| 2026-04-23 06:26 | 27.47599 | 106.98704 | 38153 ft | 445 kts | 191° |
| 2026-04-23 06:27 | 27.41392 | 106.99033 | 38152 ft | 447 kts | 191° |
| 2026-04-23 06:27 | 27.35190 | 106.99366 | 38144 ft | 448 kts | 191° |
| 2026-04-23 06:28 | 27.28947 | 106.99708 | 38144 ft | 445 kts | 191° |
| 2026-04-23 06:28 | 27.22789 | 107.00040 | 38127 ft | 445 kts | 191° |
| 2026-04-23 06:29 | 27.16595 | 107.00375 | 38140 ft | 447 kts | 192° |
| 2026-04-23 06:29 | 27.10371 | 107.00710 | 38135 ft | 447 kts | 191° |
| 2026-04-23 06:30 | 27.04164 | 107.01098 | 38130 ft | 457 kts | 186° |
| 2026-04-23 06:30 | 27.00981 | 107.01892 | 38134 ft | 479 kts | 175° |
| 2026-04-23 06:30 | 26.97842 | 107.03433 | 38133 ft | 503 kts | 163° |
| 2026-04-23 06:31 | 26.94927 | 107.05728 | 38132 ft | 527 kts | 149° |
| 2026-04-23 06:31 | 26.92394 | 107.08778 | 38135 ft | 548 kts | 135° |
| 2026-04-23 06:31 | 26.90433 | 107.12520 | 38133 ft | 566 kts | 120° |
| 2026-04-23 06:31 | 26.89160 | 107.16707 | 38143 ft | 575 kts | 110° |
| 2026-04-23 06:32 | 26.87150 | 107.25364 | 38133 ft | 576 kts | 109° |
| 2026-04-23 06:32 | 26.85109 | 107.33967 | 38126 ft | 574 kts | 110° |
| 2026-04-23 06:33 | 26.82930 | 107.42584 | 38123 ft | 574 kts | 111° |
| 2026-04-23 06:33 | 26.80748 | 107.51081 | 38122 ft | 574 kts | 111° |
| 2026-04-23 06:34 | 26.78551 | 107.59654 | 38115 ft | 575 kts | 111° |
| 2026-04-23 06:34 | 26.76339 | 107.68227 | 38098 ft | 572 kts | 111° |
| 2026-04-23 06:35 | 26.74125 | 107.76739 | 38123 ft | 572 kts | 111° |
| 2026-04-23 06:35 | 26.71892 | 107.85295 | 38118 ft | 573 kts | 111° |
| 2026-04-23 06:36 | 26.69675 | 107.93781 | 38100 ft | 573 kts | 111° |
| 2026-04-23 06:36 | 26.67451 | 108.02304 | 38116 ft | 573 kts | 111° |
| 2026-04-23 06:37 | 26.65212 | 108.10839 | 38115 ft | 574 kts | 111° |
| 2026-04-23 06:37 | 26.62973 | 108.19388 | 38112 ft | 573 kts | 111° |
| 2026-04-23 06:38 | 26.60738 | 108.27868 | 38119 ft | 572 kts | 111° |
| 2026-04-23 06:38 | 26.58486 | 108.36392 | 38112 ft | 573 kts | 111° |
| 2026-04-23 06:39 | 26.56401 | 108.44989 | 38110 ft | 575 kts | 108° |
| 2026-04-23 06:39 | 26.54451 | 108.53578 | 38098 ft | 575 kts | 108° |
| 2026-04-23 06:40 | 26.52463 | 108.62228 | 38100 ft | 575 kts | 108° |
| 2026-04-23 06:40 | 26.50464 | 108.70824 | 38076 ft | 573 kts | 110° |
| 2026-04-23 06:41 | 26.48448 | 108.79409 | 38103 ft | 574 kts | 109° |
| 2026-04-23 06:41 | 26.46438 | 108.87983 | 38101 ft | 575 kts | 109° |
| 2026-04-23 06:42 | 26.44091 | 108.96410 | 38091 ft | 567 kts | 120° |
| 2026-04-23 06:42 | 26.40227 | 109.03910 | 38092 ft | 548 kts | 136° |
| 2026-04-23 06:43 | 26.37803 | 109.07099 | 38086 ft | 537 kts | 144° |
| 2026-04-23 06:43 | 26.35107 | 109.09911 | 38092 ft | 525 kts | 151° |
| 2026-04-23 06:43 | 26.29407 | 109.14942 | 38100 ft | 522 kts | 153° |
| 2026-04-23 06:44 | 26.23693 | 109.19939 | 38099 ft | 524 kts | 153° |
| 2026-04-23 06:44 | 26.17992 | 109.25008 | 38095 ft | 523 kts | 152° |
| 2026-04-23 06:45 | 26.12334 | 109.30064 | 38106 ft | 525 kts | 152° |
| 2026-04-23 06:45 | 26.06666 | 109.35132 | 38095 ft | 525 kts | 152° |
| 2026-04-23 06:46 | 26.00950 | 109.40237 | 38092 ft | 525 kts | 152° |
| 2026-04-23 06:46 | 25.95292 | 109.45284 | 38094 ft | 525 kts | 152° |
| 2026-04-23 06:47 | 25.89596 | 109.50359 | 38094 ft | 525 kts | 152° |
| 2026-04-23 06:47 | 25.83878 | 109.55449 | 38081 ft | 525 kts | 152° |
| 2026-04-23 06:48 | 25.78224 | 109.60510 | 38056 ft | 526 kts | 149° |
| 2026-04-23 06:48 | 25.72808 | 109.66033 | 38048 ft | 530 kts | 146° |
| 2026-04-23 06:49 | 25.67483 | 109.71696 | 38062 ft | 531 kts | 146° |
| 2026-04-23 06:49 | 25.62169 | 109.77331 | 38072 ft | 531 kts | 146° |
| 2026-04-23 06:50 | 25.56823 | 109.82978 | 38066 ft | 530 kts | 146° |
| 2026-04-23 06:50 | 25.51487 | 109.88606 | 38068 ft | 529 kts | 146° |
| 2026-04-23 06:51 | 25.46175 | 109.94202 | 38058 ft | 528 kts | 146° |
| 2026-04-23 06:51 | 25.40858 | 109.99792 | 38052 ft | 528 kts | 146° |
| 2026-04-23 06:52 | 25.35573 | 110.05345 | 38042 ft | 529 kts | 146° |
| 2026-04-23 06:52 | 25.30239 | 110.10945 | 38038 ft | 527 kts | 145° |
| 2026-04-23 06:53 | 25.24937 | 110.16510 | 38043 ft | 527 kts | 146° |
| 2026-04-23 06:53 | 25.19604 | 110.22093 | 38043 ft | 527 kts | 145° |
| 2026-04-23 06:54 | 25.14317 | 110.27677 | 38035 ft | 526 kts | 144° |
| 2026-04-23 06:54 | 25.09060 | 110.33250 | 38033 ft | 526 kts | 144° |
| 2026-04-23 06:55 | 25.03775 | 110.38845 | 38031 ft | 525 kts | 144° |
| 2026-04-23 06:55 | 24.98524 | 110.44383 | 38044 ft | 525 kts | 144° |
| 2026-04-23 06:56 | 24.93268 | 110.49935 | 38039 ft | 523 kts | 144° |
| 2026-04-23 06:56 | 24.88020 | 110.55478 | 38039 ft | 522 kts | 144° |
| 2026-04-23 06:57 | 24.82810 | 110.60972 | 38030 ft | 523 kts | 144° |
| 2026-04-23 06:57 | 24.77547 | 110.66522 | 38021 ft | 522 kts | 144° |
| 2026-04-23 06:58 | 24.72310 | 110.72045 | 38029 ft | 521 kts | 144° |
| 2026-04-23 06:58 | 24.67102 | 110.77518 | 38026 ft | 521 kts | 144° |
| 2026-04-23 06:59 | 24.61908 | 110.83073 | 38030 ft | 519 kts | 143° |
| 2026-04-23 06:59 | 24.56745 | 110.88644 | 38037 ft | 520 kts | 143° |
| 2026-04-23 07:00 | 24.51603 | 110.94183 | 38035 ft | 519 kts | 143° |
| 2026-04-23 07:00 | 24.46451 | 110.99724 | 38024 ft | 518 kts | 143° |
| 2026-04-23 07:01 | 24.41287 | 111.05269 | 38017 ft | 518 kts | 143° |
| 2026-04-23 07:01 | 24.36174 | 111.10752 | 38008 ft | 516 kts | 143° |
| 2026-04-23 07:02 | 24.31023 | 111.16273 | 38018 ft | 518 kts | 143° |
| 2026-04-23 07:02 | 24.25832 | 111.21762 | 37998 ft | 513 kts | 145° |
| 2026-04-23 07:03 | 24.21315 | 111.25837 | 38004 ft | 507 kts | 151° |
| 2026-04-23 07:03 | 24.15515 | 111.30012 | 38014 ft | 498 kts | 158° |
| 2026-04-23 07:04 | 24.09386 | 111.33527 | 38016 ft | 495 kts | 161° |
| 2026-04-23 07:04 | 24.03248 | 111.36925 | 38009 ft | 493 kts | 161° |
| 2026-04-23 07:05 | 23.97129 | 111.40328 | 38003 ft | 493 kts | 161° |
| 2026-04-23 07:05 | 23.91026 | 111.43729 | 37999 ft | 493 kts | 161° |
| 2026-04-23 07:06 | 23.84920 | 111.47130 | 37994 ft | 493 kts | 161° |
| 2026-04-23 07:06 | 23.78771 | 111.50547 | 37982 ft | 494 kts | 160° |
| 2026-04-23 07:07 | 23.75731 | 111.52235 | 37858 ft | 495 kts | 160° |
| 2026-04-23 07:07 | 23.72668 | 111.53940 | 37559 ft | 492 kts | 160° |
| 2026-04-23 07:07 | 23.69621 | 111.55639 | 37272 ft | 489 kts | 160° |
| 2026-04-23 07:07 | 23.66611 | 111.57316 | 36985 ft | 486 kts | 160° |
| 2026-04-23 07:08 | 23.63615 | 111.58981 | 36690 ft | 483 kts | 160° |
| 2026-04-23 07:08 | 23.60607 | 111.60645 | 36392 ft | 483 kts | 160° |
| 2026-04-23 07:08 | 23.57619 | 111.62300 | 36102 ft | 482 kts | 160° |
| 2026-04-23 07:08 | 23.54630 | 111.63959 | 35812 ft | 481 kts | 160° |
| 2026-04-23 07:09 | 23.51633 | 111.65620 | 35519 ft | 482 kts | 160° |
| 2026-04-23 07:09 | 23.48657 | 111.67270 | 35229 ft | 481 kts | 160° |
| 2026-04-23 07:09 | 23.45824 | 111.68837 | 34930 ft | 482 kts | 160° |
| 2026-04-23 07:09 | 23.42793 | 111.70510 | 34570 ft | 483 kts | 160° |
| 2026-04-23 07:10 | 23.39728 | 111.72205 | 34138 ft | 484 kts | 160° |
| 2026-04-23 07:10 | 23.36739 | 111.73858 | 33612 ft | 485 kts | 160° |
| 2026-04-23 07:10 | 23.33717 | 111.75526 | 33053 ft | 485 kts | 160° |
| 2026-04-23 07:10 | 23.30718 | 111.77183 | 32505 ft | 485 kts | 160° |
| 2026-04-23 07:11 | 23.27701 | 111.78868 | 31941 ft | 487 kts | 158° |
| 2026-04-23 07:11 | 23.24863 | 111.80974 | 31340 ft | 499 kts | 146° |
| 2026-04-23 07:11 | 23.22410 | 111.83661 | 30744 ft | 509 kts | 134° |
| 2026-04-23 07:12 | 23.19057 | 111.90456 | 29529 ft | 523 kts | 109° |
| 2026-04-23 07:12 | 23.18188 | 111.94294 | 28918 ft | 525 kts | 105° |
| 2026-04-23 07:12 | 23.17430 | 111.98174 | 28275 ft | 526 kts | 104° |
| 2026-04-23 07:12 | 23.16679 | 112.02072 | 27632 ft | 527 kts | 104° |
| 2026-04-23 07:13 | 23.15921 | 112.05929 | 26954 ft | 527 kts | 104° |
| 2026-04-23 07:13 | 23.15130 | 112.09828 | 26473 ft | 522 kts | 105° |
| 2026-04-23 07:13 | 23.14350 | 112.13635 | 26057 ft | 517 kts | 105° |
| 2026-04-23 07:13 | 23.13561 | 112.17425 | 25563 ft | 514 kts | 105° |
| 2026-04-23 07:14 | 23.12781 | 112.21149 | 25085 ft | 510 kts | 105° |
| 2026-04-23 07:14 | 23.11988 | 112.24913 | 24626 ft | 505 kts | 105° |
| 2026-04-23 07:14 | 23.11215 | 112.28597 | 24190 ft | 500 kts | 105° |
| 2026-04-23 07:14 | 23.10449 | 112.32233 | 23768 ft | 496 kts | 105° |
| 2026-04-23 07:15 | 23.09686 | 112.35879 | 23362 ft | 491 kts | 105° |
| 2026-04-23 07:15 | 23.08933 | 112.39447 | 22937 ft | 487 kts | 105° |
| 2026-04-23 07:15 | 23.08182 | 112.42998 | 22529 ft | 483 kts | 105° |
| 2026-04-23 07:15 | 23.07464 | 112.46545 | 22121 ft | 479 kts | 102° |
| 2026-04-23 07:16 | 23.06933 | 112.50109 | 21728 ft | 476 kts | 98° |
| 2026-04-23 07:16 | 23.06604 | 112.53687 | 21299 ft | 474 kts | 96° |
| 2026-04-23 07:16 | 23.06365 | 112.57215 | 20872 ft | 471 kts | 95° |
| 2026-04-23 07:16 | 23.06140 | 112.60724 | 20471 ft | 468 kts | 95° |
| 2026-04-23 07:17 | 23.05916 | 112.64257 | 20056 ft | 464 kts | 95° |
| 2026-04-23 07:17 | 23.05694 | 112.67707 | 19637 ft | 461 kts | 96° |
| 2026-04-23 07:17 | 23.05463 | 112.71188 | 19217 ft | 457 kts | 96° |
| 2026-04-23 07:17 | 23.05232 | 112.74604 | 18802 ft | 454 kts | 96° |
| 2026-04-23 07:18 | 23.05001 | 112.78001 | 18380 ft | 451 kts | 96° |
| 2026-04-23 07:18 | 23.04774 | 112.81342 | 17973 ft | 447 kts | 96° |
| 2026-04-23 07:18 | 23.04544 | 112.84686 | 17539 ft | 444 kts | 96° |
| 2026-04-23 07:18 | 23.04314 | 112.88013 | 17140 ft | 440 kts | 96° |
| 2026-04-23 07:19 | 23.04087 | 112.91308 | 16729 ft | 437 kts | 95° |
| 2026-04-23 07:19 | 23.03859 | 112.94596 | 16299 ft | 434 kts | 95° |
| 2026-04-23 07:19 | 23.03635 | 112.97823 | 15899 ft | 432 kts | 95° |
| 2026-04-23 07:19 | 23.03409 | 113.01064 | 15475 ft | 429 kts | 95° |
| 2026-04-23 07:20 | 23.03187 | 113.04274 | 15078 ft | 427 kts | 95° |
| 2026-04-23 07:20 | 23.02965 | 113.07461 | 14662 ft | 425 kts | 95° |
| 2026-04-23 07:20 | 23.02742 | 113.10650 | 14239 ft | 423 kts | 95° |
| 2026-04-23 07:20 | 23.02518 | 113.13829 | 13818 ft | 422 kts | 95° |
| 2026-04-23 07:21 | 23.02242 | 113.16979 | 13390 ft | 419 kts | 99° |
| 2026-04-23 07:21 | 23.01534 | 113.20047 | 12957 ft | 415 kts | 111° |
| 2026-04-23 07:21 | 23.00392 | 113.22897 | 12544 ft | 411 kts | 119° |
| 2026-04-23 07:21 | 22.99074 | 113.25639 | 12131 ft | 408 kts | 120° |
| 2026-04-23 07:22 | 22.97758 | 113.28311 | 11712 ft | 406 kts | 120° |
| 2026-04-23 07:22 | 22.96432 | 113.31020 | 11344 ft | 402 kts | 120° |
| 2026-04-23 07:22 | 22.95151 | 113.33675 | 11249 ft | 390 kts | 119° |
| 2026-04-23 07:22 | 22.93943 | 113.36193 | 11060 ft | 368 kts | 120° |
| 2026-04-23 07:23 | 22.92810 | 113.38580 | 11053 ft | 346 kts | 120° |
| 2026-04-23 07:23 | 22.91724 | 113.40857 | 11001 ft | 336 kts | 120° |
| 2026-04-23 07:23 | 22.90663 | 113.43076 | 10944 ft | 326 kts | 120° |
| 2026-04-23 07:23 | 22.89628 | 113.45239 | 10907 ft | 315 kts | 121° |
| 2026-04-23 07:24 | 22.88386 | 113.47079 | 10828 ft | 298 kts | 146° |
| 2026-04-23 07:24 | 22.86598 | 113.48093 | 10744 ft | 283 kts | 173° |
| 2026-04-23 07:24 | 22.84663 | 113.48205 | 10461 ft | 274 kts | 190° |
| 2026-04-23 07:24 | 22.82766 | 113.48016 | 10198 ft | 274 kts | 191° |
| 2026-04-23 07:25 | 22.80858 | 113.47824 | 9913 ft | 274 kts | 191° |
| 2026-04-23 07:25 | 22.78953 | 113.47655 | 9654 ft | 274 kts | 190° |
| 2026-04-23 07:25 | 22.77035 | 113.47498 | 9404 ft | 273 kts | 189° |
| 2026-04-23 07:25 | 22.75131 | 113.47353 | 9135 ft | 273 kts | 189° |
| 2026-04-23 07:26 | 22.73244 | 113.47211 | 8872 ft | 272 kts | 189° |
| 2026-04-23 07:26 | 22.71355 | 113.47070 | 8623 ft | 272 kts | 189° |
| 2026-04-23 07:26 | 22.69424 | 113.46923 | 8354 ft | 279 kts | 189° |
| 2026-04-23 07:26 | 22.67473 | 113.46779 | 8132 ft | 278 kts | 188° |
| 2026-04-23 07:27 | 22.65533 | 113.46638 | 7905 ft | 277 kts | 188° |
| 2026-04-23 07:27 | 22.63628 | 113.46497 | 7674 ft | 276 kts | 188° |
| 2026-04-23 07:27 | 22.61694 | 113.46354 | 7478 ft | 275 kts | 188° |
| 2026-04-23 07:27 | 22.59787 | 113.46285 | 7255 ft | 277 kts | 178° |
| 2026-04-23 07:28 | 22.57964 | 113.47041 | 6868 ft | 294 kts | 146° |
| 2026-04-23 07:28 | 22.56661 | 113.48817 | 6558 ft | 302 kts | 120° |
| 2026-04-23 07:28 | 22.55741 | 113.50827 | 6514 ft | 292 kts | 120° |
| 2026-04-23 07:28 | 22.54838 | 113.52730 | 6475 ft | 283 kts | 121° |
| 2026-04-23 07:29 | 22.53928 | 113.54597 | 6447 ft | 274 kts | 121° |
| 2026-04-23 07:29 | 22.53048 | 113.56374 | 6416 ft | 264 kts | 122° |
| 2026-04-23 07:29 | 22.52163 | 113.58137 | 6187 ft | 264 kts | 122° |
| 2026-04-23 07:29 | 22.51276 | 113.59881 | 5938 ft | 265 kts | 122° |
| 2026-04-23 07:30 | 22.50400 | 113.61608 | 5706 ft | 265 kts | 122° |
| 2026-04-23 07:30 | 22.49512 | 113.63361 | 5506 ft | 264 kts | 122° |
| 2026-04-23 07:30 | 22.48659 | 113.65133 | 5268 ft | 265 kts | 117° |
| 2026-04-23 07:30 | 22.47999 | 113.66962 | 5068 ft | 264 kts | 112° |
| 2026-04-23 07:31 | 22.47394 | 113.68847 | 4878 ft | 262 kts | 111° |
| 2026-04-23 07:31 | 22.46811 | 113.70696 | 4701 ft | 259 kts | 111° |
| 2026-04-23 07:31 | 22.46219 | 113.72563 | 4424 ft | 261 kts | 110° |
| 2026-04-23 07:31 | 22.45631 | 113.74404 | 4273 ft | 258 kts | 111° |
| 2026-04-23 07:32 | 22.45052 | 113.76205 | 4122 ft | 254 kts | 110° |
| 2026-04-23 07:32 | 22.44488 | 113.77995 | 3957 ft | 251 kts | 105° |
| 2026-04-23 07:32 | 22.44483 | 113.79852 | 3736 ft | 247 kts | 70° |
| 2026-04-23 07:32 | 22.45206 | 113.81522 | 3490 ft | 241 kts | 58° |
| 2026-04-23 07:33 | 22.46056 | 113.83073 | 3201 ft | 237 kts | 57° |
| 2026-04-23 07:33 | 22.46882 | 113.84613 | 2949 ft | 234 kts | 59° |
| 2026-04-23 07:33 | 22.47722 | 113.86074 | 2661 ft | 229 kts | 41° |
| 2026-04-23 07:33 | 22.49047 | 113.86914 | 2403 ft | 218 kts | 6° |
| 2026-04-23 07:34 | 22.50491 | 113.86786 | 2318 ft | 198 kts | 336° |
| 2026-04-23 07:34 | 22.51681 | 113.86163 | 2281 ft | 181 kts | 328° |
| 2026-04-23 07:34 | 22.52754 | 113.85499 | 2089 ft | 178 kts | 329° |
| 2026-04-23 07:34 | 22.53843 | 113.84855 | 1856 ft | 175 kts | 331° |
| 2026-04-23 07:35 | 22.54906 | 113.84260 | 1621 ft | 168 kts | 332° |
| 2026-04-23 07:35 | 22.55934 | 113.83697 | 1399 ft | 161 kts | 332° |
| 2026-04-23 07:35 | 22.56912 | 113.83164 | 1195 ft | 153 kts | 332° |
| 2026-04-23 07:35 | 22.57843 | 113.82655 | 1004 ft | 145 kts | 332° |
| 2026-04-23 07:36 | 22.58732 | 113.82166 | 828 ft | 143 kts | 331° |
| 2026-04-23 07:36 | 22.59628 | 113.81674 | 649 ft | 143 kts | 332° |
| 2026-04-23 07:36 | 22.60523 | 113.81184 | 461 ft | 143 kts | 331° |
| 2026-04-23 07:36 | 22.61401 | 113.80707 | 272 ft | 142 kts | 331° |
| 2026-04-23 07:37 | 22.62282 | 113.80221 | 85 ft | 140 kts | 332° |
| 2026-04-23 07:37 | 22.63117 | 113.79768 | 30 ft | 114 kts | 330° |
| 2026-04-23 07:37 | 22.63660 | 113.79461 | 30 ft | 61 kts | 335° |
| 2026-04-23 07:37 | 22.63954 | 113.79305 | 30 ft | 41 kts | 334° |
| 2026-04-23 07:38 | 22.64183 | 113.79249 | 30 ft | 29 kts | 352° |
| 2026-04-23 07:38 | 22.64355 | 113.79255 | 30 ft | 22 kts | 12° |
| 2026-04-23 07:38 | 22.64416 | 113.79339 | 30 ft | 13 kts | 61° |
| 2026-04-23 07:38 | 22.64462 | 113.79430 | 30 ft | 13 kts | 62° |
| 2026-04-23 07:39 | 22.64507 | 113.79526 | 30 ft | 14 kts | 64° |
| 2026-04-23 07:39 | 22.64554 | 113.79627 | 30 ft | 15 kts | 63° |
| 2026-04-23 07:39 | 22.64571 | 113.79722 | 30 ft | 7 kts | 134° |
| 2026-04-23 07:39 | 22.64547 | 113.79745 | 30 ft | 4 kts | 128° |
| 2026-04-23 07:40 | 22.64526 | 113.79778 | 30 ft | 6 kts | 122° |
| 2026-04-23 07:40 | 22.64498 | 113.79826 | 30 ft | 8 kts | 125° |
| 2026-04-23 07:40 | 22.64465 | 113.79836 | 30 ft | 4 kts | 193° |
| 2026-04-23 07:40 | 22.64429 | 113.79818 | 30 ft | 6 kts | 209° |
| 2026-04-23 07:41 | 22.64406 | 113.79803 | 30 ft | 0 kts | 212° |